Nyk Orpheus — 7JDN — position and weather

sailwx.info

Track history (hours):
 
Tides and Currents Weather Stations Pressure Air Temp Water Temp Dewpoint Dewpoint Depression Visibility Wind Speed Wind Dir Waves Ship Positions

Nyk Orpheus

Last reported at 2016-Feb-09 02:34 UTC. Time now 2016-Feb-12 03:36 UTC.
Position N 36°51' W 075°51'.

Length 336 m; draft 13.5 m.

Type: Other ship. MMSI: 432657000.

Date/timePositionNaut miles runAvg speedWind from/ knotsBaromVisibWave heightAir tempDewpointWater temp
2016-Feb-09 02:34N 36°51' W 075°51'9 9.3
2016-Feb-09 01:34N 36°57' W 076°01'9 9.3
2016-Feb-09 00:34N 36°60' W 076°12'7 7.4
2016-Feb-08 23:33N 36°57' W 076°20'3 2.4
2016-Feb-08 22:31N 36°54' W 076°20'0 0.0
2016-Feb-08 21:31N 36°54' W 076°20'0 0.0
2016-Feb-08 20:31N 36°54' W 076°20'0 0.0
2016-Feb-08 19:28N 36°54' W 076°20'0 0.0
2016-Feb-08 18:31N 36°54' W 076°20'0 0.0
2016-Feb-08 17:31N 36°54' W 076°20'0 0.0
2016-Feb-08 16:31N 36°54' W 076°20'0 0.0
2016-Feb-08 15:31N 36°54' W 076°20'0 0.0
2016-Feb-08 14:31N 36°54' W 076°20'0 0.0
2016-Feb-08 13:31N 36°54' W 076°20'0 0.0
2016-Feb-08 12:31N 36°54' W 076°20'0 0.0
2016-Feb-08 11:31N 36°54' W 076°20'0 0.0
2016-Feb-08 10:31N 36°54' W 076°20'0 0.0
2016-Feb-08 09:25N 36°54' W 076°20'0 0.0
2016-Feb-08 08:31N 36°54' W 076°20'0 0.0
2016-Feb-08 07:31N 36°54' W 076°20'0 0.0
2016-Feb-08 06:22N 36°54' W 076°20'0 0.0
2016-Feb-08 05:31N 36°54' W 076°20'0 0.0
2016-Feb-08 04:31N 36°54' W 076°20'0 0.0
2016-Feb-08 03:31N 36°54' W 076°20'0 0.0
2016-Feb-08 02:31N 36°54' W 076°20'0 0.0
2016-Feb-08 01:31N 36°54' W 076°20'0 0.0
2016-Feb-08 00:31N 36°54' W 076°20'0 0.0
2016-Feb-07 23:31N 36°54' W 076°20'0 0.0
2016-Feb-07 22:31N 36°54' W 076°20'0 0.0
2016-Feb-07 21:31N 36°54' W 076°20'0 0.0
2016-Feb-07 20:31N 36°54' W 076°20'1 0.9
2016-Feb-07 19:34N 36°55' W 076°20'7 7.0
2016-Feb-07 18:33N 37°01' W 076°15'1312.7
2016-Feb-07 17:33N 36°57' W 075°60'8 8.1
2016-Feb-07 16:33N 36°52' W 075°51'16713.9
2016-Feb-07 04:33N 34°07' W 076°21'2119.0
2016-Feb-07 03:28N 33°54' W 076°40'228 4.5
2016-Feb-05 00:24N 31°56' W 080°34'8 9.0
2016-Feb-04 23:33N 31°57' W 080°42'1111.0
2016-Feb-04 22:33N 32°02' W 080°54'8 8.0
2016-Feb-04 21:33N 32°05' W 081°03'5 4.6
2016-Feb-04 20:33N 32°07' W 081°08'0 0.5
2016-Feb-04 19:32N 32°08' W 081°08'0 0.0
2016-Feb-04 18:32N 32°08' W 081°08'0 0.0
2016-Feb-04 17:32N 32°08' W 081°08'0 0.0
2016-Feb-04 16:32N 32°08' W 081°08'0 0.0
2016-Feb-04 15:32N 32°08' W 081°08'0 0.0
2016-Feb-04 09:32N 32°08' W 081°08'0 0.0
2016-Feb-04 08:32N 32°08' W 081°08'0 0.0
2016-Feb-04 07:32N 32°08' W 081°08'0 0.0
2016-Feb-04 06:32N 32°08' W 081°08'0 0.0
2016-Feb-04 05:32N 32°08' W 081°08'0 0.0
2016-Feb-04 04:32N 32°08' W 081°08'0 0.0
2016-Feb-04 03:32N 32°08' W 081°08'0 0.0
2016-Feb-04 02:32N 32°08' W 081°08'0 0.0
2016-Feb-04 01:32N 32°08' W 081°08'0 0.0
2016-Feb-04 00:32N 32°08' W 081°08'0 0.0
2016-Feb-03 23:32N 32°08' W 081°08'0 0.0
2016-Feb-03 22:32N 32°08' W 081°08'0 0.0
2016-Feb-03 21:32N 32°08' W 081°08'0 0.0
2016-Feb-03 20:32N 32°08' W 081°08'0 0.0
2016-Feb-03 19:32N 32°08' W 081°08'0 0.0
2016-Feb-03 18:32N 32°08' W 081°08'0 0.0
2016-Feb-03 17:32N 32°08' W 081°08'0 0.0
2016-Feb-03 16:32N 32°08' W 081°08'0 0.0
2016-Feb-03 15:32N 32°08' W 081°08'0 0.0
2016-Feb-03 14:32N 32°08' W 081°08'0 0.0
2016-Feb-03 13:32N 32°08' W 081°08'0 0.0
2016-Feb-03 12:32N 32°08' W 081°08'0 0.0
2016-Feb-03 11:32N 32°08' W 081°08'0 0.0
2016-Feb-03 10:32N 32°08' W 081°08'0 0.0
2016-Feb-03 09:29N 32°08' W 081°08'0 0.0
2016-Feb-03 08:32N 32°08' W 081°08'0 0.0
2016-Feb-03 07:32N 32°08' W 081°08'0 0.0
2016-Feb-03 06:32N 32°08' W 081°08'0 0.0
2016-Feb-03 05:32N 32°08' W 081°08'0 0.0
2016-Feb-03 04:32N 32°08' W 081°08'0 0.0
2016-Feb-03 03:32N 32°08' W 081°08'0 0.0
2016-Feb-03 02:32N 32°08' W 081°08'0 0.0
2016-Feb-03 01:32N 32°08' W 081°08'0 0.0
2016-Feb-03 00:32N 32°08' W 081°08'0 0.0
2016-Feb-02 23:32N 32°08' W 081°08'0 0.0
2016-Feb-02 22:32N 32°08' W 081°08'0 0.0
2016-Feb-02 21:32N 32°08' W 081°08'0 0.0
2016-Feb-02 20:32N 32°08' W 081°08'0 0.0
2016-Feb-02 19:32N 32°08' W 081°08'1 1.4
2016-Feb-02 18:33N 32°06' W 081°07'5 5.2
2016-Feb-02 17:33N 32°06' W 081°01'1110.9
2016-Feb-02 16:33N 32°02' W 080°49'1010.2
2016-Feb-02 15:33N 31°56' W 080°39'9 6.7
2016-Feb-02 14:18N 31°56' W 080°29'5 7.0
2016-Feb-02 13:34N 31°56' W 080°23'1716.2
2016-Feb-02 12:32N 32°02' W 080°05'21320.8
2016-Feb-02 02:15N 33°52' W 076°27'1420.6
2016-Feb-02 01:33N 34°01' W 076°13'2019.6
2016-Feb-02 00:33N 34°12' W 075°54'1818.2
2016-Feb-01 23:32N 34°25' W 075°38'29718.1
2016-Feb-01 07:08N 39°10' W 073°57'1318.8
2016-Feb-01 06:25N 39°24' W 073°54'1818.4
2016-Feb-01 05:25N 39°42' W 073°52'4113.3
2016-Feb-01 02:20N 40°23' W 073°49'10 8.2
2016-Feb-01 01:08N 40°30' W 073°57'712.4
2016-Feb-01 00:33N 40°36' W 074°03'4 4.3
2016-Jan-31 23:33N 40°40' W 074°05'0 0.0
2016-Jan-31 22:32N 40°40' W 074°05'0 0.0
2016-Jan-31 21:32N 40°40' W 074°05'0 0.0
2016-Jan-31 20:32N 40°40' W 074°05'0 0.0
2016-Jan-31 19:32N 40°40' W 074°05'0 0.0
2016-Jan-31 18:32N 40°40' W 074°05'0 0.0
2016-Jan-31 17:32N 40°40' W 074°05'0 0.0
2016-Jan-31 16:32N 40°40' W 074°05'0 0.0
2016-Jan-31 15:32N 40°40' W 074°05'0 0.0
2016-Jan-31 14:32N 40°40' W 074°05'0 0.0
2016-Jan-31 13:32N 40°40' W 074°05'0 0.0
2016-Jan-31 12:32N 40°40' W 074°05'0 0.0
2016-Jan-31 11:32N 40°40' W 074°05'0 0.0
2016-Jan-31 10:32N 40°40' W 074°05'0 0.0
2016-Jan-31 09:32N 40°40' W 074°05'0 0.0
2016-Jan-31 08:32N 40°40' W 074°05'0 0.0
2016-Jan-31 07:32N 40°40' W 074°05'0 0.0
2016-Jan-31 06:32N 40°40' W 074°05'0 0.0
2016-Jan-31 05:32N 40°40' W 074°05'0 0.0
2016-Jan-31 04:32N 40°40' W 074°05'0 0.0
2016-Jan-31 03:32N 40°40' W 074°05'0 0.0
2016-Jan-31 02:32N 40°40' W 074°05'0 0.0
2016-Jan-31 01:32N 40°40' W 074°05'0 0.0
2016-Jan-31 00:32N 40°40' W 074°05'0 0.0
2016-Jan-30 23:32N 40°40' W 074°05'0 0.0
2016-Jan-30 22:32N 40°40' W 074°05'0 0.0
2016-Jan-30 21:32N 40°40' W 074°05'0 0.0
2016-Jan-30 20:32N 40°40' W 074°05'0 0.0
2016-Jan-30 19:32N 40°40' W 074°05'0 0.0
2016-Jan-30 18:32N 40°40' W 074°05'0 0.0
2016-Jan-30 17:32N 40°40' W 074°05'0 0.0
2016-Jan-30 16:32N 40°40' W 074°05'0 0.0
2016-Jan-30 15:32N 40°40' W 074°05'0 0.0
2016-Jan-30 14:32N 40°40' W 074°05'0 0.0
2016-Jan-30 13:32N 40°40' W 074°05'0 0.0
2016-Jan-30 12:32N 40°40' W 074°05'0 0.0
2016-Jan-30 11:32N 40°40' W 074°05'0 0.0
2016-Jan-30 10:32N 40°40' W 074°05'0 0.0
2016-Jan-30 09:32N 40°40' W 074°05'0 0.0
2016-Jan-30 08:32N 40°40' W 074°05'0 0.0
2016-Jan-30 07:32N 40°40' W 074°05'0 0.0
2016-Jan-30 06:32N 40°40' W 074°05'0 0.0
2016-Jan-30 05:32N 40°40' W 074°05'0 0.0
2016-Jan-30 04:32N 40°40' W 074°05'0 0.0
2016-Jan-30 03:32N 40°40' W 074°05'  
Track history (hours):
 
Tides and Currents Weather Stations Pressure Air Temp Water Temp Dewpoint Dewpoint Depression Visibility Wind Speed Wind Dir Waves Ship Positions

Nyk Orpheus

Last reported at 2016-Feb-09 02:34 UTC. Time now 2016-Feb-12 03:36 UTC.
Position N 36°51' W 075°51'.

Length 336 m; draft 13.5 m.

Type: Other ship. MMSI: 432657000.

Date/timePositionNaut miles runAvg speedWind from/ knotsBaromVisibWave heightAir tempDewpointWater temp
2016-Feb-09 02:34N 36°51' W 075°51'9 9.3
2016-Feb-09 01:34N 36°57' W 076°01'9 9.3
2016-Feb-09 00:34N 36°60' W 076°12'7 7.4
2016-Feb-08 23:33N 36°57' W 076°20'3 2.4
2016-Feb-08 22:31N 36°54' W 076°20'0 0.0
2016-Feb-08 21:31N 36°54' W 076°20'0 0.0
2016-Feb-08 20:31N 36°54' W 076°20'0 0.0
2016-Feb-08 19:28N 36°54' W 076°20'0 0.0
2016-Feb-08 18:31N 36°54' W 076°20'0 0.0
2016-Feb-08 17:31N 36°54' W 076°20'0 0.0
2016-Feb-08 16:31N 36°54' W 076°20'0 0.0
2016-Feb-08 15:31N 36°54' W 076°20'0 0.0
2016-Feb-08 14:31N 36°54' W 076°20'0 0.0
2016-Feb-08 13:31N 36°54' W 076°20'0 0.0
2016-Feb-08 12:31N 36°54' W 076°20'0 0.0
2016-Feb-08 11:31N 36°54' W 076°20'0 0.0
2016-Feb-08 10:31N 36°54' W 076°20'0 0.0
2016-Feb-08 09:25N 36°54' W 076°20'0 0.0
2016-Feb-08 08:31N 36°54' W 076°20'0 0.0
2016-Feb-08 07:31N 36°54' W 076°20'0 0.0
2016-Feb-08 06:22N 36°54' W 076°20'0 0.0
2016-Feb-08 05:31N 36°54' W 076°20'0 0.0
2016-Feb-08 04:31N 36°54' W 076°20'0 0.0
2016-Feb-08 03:31N 36°54' W 076°20'0 0.0
2016-Feb-08 02:31N 36°54' W 076°20'0 0.0
2016-Feb-08 01:31N 36°54' W 076°20'0 0.0
2016-Feb-08 00:31N 36°54' W 076°20'0 0.0
2016-Feb-07 23:31N 36°54' W 076°20'0 0.0
2016-Feb-07 22:31N 36°54' W 076°20'0 0.0
2016-Feb-07 21:31N 36°54' W 076°20'0 0.0
2016-Feb-07 20:31N 36°54' W 076°20'1 0.9
2016-Feb-07 19:34N 36°55' W 076°20'7 7.0
2016-Feb-07 18:33N 37°01' W 076°15'1312.7
2016-Feb-07 17:33N 36°57' W 075°60'8 8.1
2016-Feb-07 16:33N 36°52' W 075°51'16713.9
2016-Feb-07 04:33N 34°07' W 076°21'2119.0
2016-Feb-07 03:28N 33°54' W 076°40'228 4.5
2016-Feb-05 00:24N 31°56' W 080°34'8 9.0
2016-Feb-04 23:33N 31°57' W 080°42'1111.0
2016-Feb-04 22:33N 32°02' W 080°54'8 8.0
2016-Feb-04 21:33N 32°05' W 081°03'5 4.6
2016-Feb-04 20:33N 32°07' W 081°08'0 0.5
2016-Feb-04 19:32N 32°08' W 081°08'0 0.0
2016-Feb-04 18:32N 32°08' W 081°08'0 0.0
2016-Feb-04 17:32N 32°08' W 081°08'0 0.0
2016-Feb-04 16:32N 32°08' W 081°08'0 0.0
2016-Feb-04 15:32N 32°08' W 081°08'0 0.0
2016-Feb-04 09:32N 32°08' W 081°08'0 0.0
2016-Feb-04 08:32N 32°08' W 081°08'0 0.0
2016-Feb-04 07:32N 32°08' W 081°08'0 0.0
2016-Feb-04 06:32N 32°08' W 081°08'0 0.0
2016-Feb-04 05:32N 32°08' W 081°08'0 0.0
2016-Feb-04 04:32N 32°08' W 081°08'0 0.0
2016-Feb-04 03:32N 32°08' W 081°08'0 0.0
2016-Feb-04 02:32N 32°08' W 081°08'0 0.0
2016-Feb-04 01:32N 32°08' W 081°08'0 0.0
2016-Feb-04 00:32N 32°08' W 081°08'0 0.0
2016-Feb-03 23:32N 32°08' W 081°08'0 0.0
2016-Feb-03 22:32N 32°08' W 081°08'0 0.0
2016-Feb-03 21:32N 32°08' W 081°08'0 0.0
2016-Feb-03 20:32N 32°08' W 081°08'0 0.0
2016-Feb-03 19:32N 32°08' W 081°08'0 0.0
2016-Feb-03 18:32N 32°08' W 081°08'0 0.0
2016-Feb-03 17:32N 32°08' W 081°08'0 0.0
2016-Feb-03 16:32N 32°08' W 081°08'0 0.0
2016-Feb-03 15:32N 32°08' W 081°08'0 0.0
2016-Feb-03 14:32N 32°08' W 081°08'0 0.0
2016-Feb-03 13:32N 32°08' W 081°08'0 0.0
2016-Feb-03 12:32N 32°08' W 081°08'0 0.0
2016-Feb-03 11:32N 32°08' W 081°08'0 0.0
2016-Feb-03 10:32N 32°08' W 081°08'0 0.0
2016-Feb-03 09:29N 32°08' W 081°08'0 0.0
2016-Feb-03 08:32N 32°08' W 081°08'0 0.0
2016-Feb-03 07:32N 32°08' W 081°08'0 0.0
2016-Feb-03 06:32N 32°08' W 081°08'0 0.0
2016-Feb-03 05:32N 32°08' W 081°08'0 0.0
2016-Feb-03 04:32N 32°08' W 081°08'0 0.0
2016-Feb-03 03:32N 32°08' W 081°08'0 0.0
2016-Feb-03 02:32N 32°08' W 081°08'0 0.0
2016-Feb-03 01:32N 32°08' W 081°08'0 0.0
2016-Feb-03 00:32N 32°08' W 081°08'0 0.0
2016-Feb-02 23:32N 32°08' W 081°08'0 0.0
2016-Feb-02 22:32N 32°08' W 081°08'0 0.0
2016-Feb-02 21:32N 32°08' W 081°08'0 0.0
2016-Feb-02 20:32N 32°08' W 081°08'0 0.0
2016-Feb-02 19:32N 32°08' W 081°08'1 1.4
2016-Feb-02 18:33N 32°06' W 081°07'5 5.2
2016-Feb-02 17:33N 32°06' W 081°01'1110.9
2016-Feb-02 16:33N 32°02' W 080°49'1010.2
2016-Feb-02 15:33N 31°56' W 080°39'9 6.7
2016-Feb-02 14:18N 31°56' W 080°29'5 7.0
2016-Feb-02 13:34N 31°56' W 080°23'1716.2
2016-Feb-02 12:32N 32°02' W 080°05'21320.8
2016-Feb-02 02:15N 33°52' W 076°27'1420.6
2016-Feb-02 01:33N 34°01' W 076°13'2019.6
2016-Feb-02 00:33N 34°12' W 075°54'1818.2
2016-Feb-01 23:32N 34°25' W 075°38'29718.1
2016-Feb-01 07:08N 39°10' W 073°57'1318.8
2016-Feb-01 06:25N 39°24' W 073°54'1818.4
2016-Feb-01 05:25N 39°42' W 073°52'4113.3
2016-Feb-01 02:20N 40°23' W 073°49'10 8.2
2016-Feb-01 01:08N 40°30' W 073°57'712.4
2016-Feb-01 00:33N 40°36' W 074°03'4 4.3
2016-Jan-31 23:33N 40°40' W 074°05'0 0.0
2016-Jan-31 22:32N 40°40' W 074°05'0 0.0
2016-Jan-31 21:32N 40°40' W 074°05'0 0.0
2016-Jan-31 20:32N 40°40' W 074°05'0 0.0
2016-Jan-31 19:32N 40°40' W 074°05'0 0.0
2016-Jan-31 18:32N 40°40' W 074°05'0 0.0
2016-Jan-31 17:32N 40°40' W 074°05'0 0.0
2016-Jan-31 16:32N 40°40' W 074°05'0 0.0
2016-Jan-31 15:32N 40°40' W 074°05'0 0.0
2016-Jan-31 14:32N 40°40' W 074°05'0 0.0
2016-Jan-31 13:32N 40°40' W 074°05'0 0.0
2016-Jan-31 12:32N 40°40' W 074°05'0 0.0
2016-Jan-31 11:32N 40°40' W 074°05'0 0.0
2016-Jan-31 10:32N 40°40' W 074°05'0 0.0
2016-Jan-31 09:32N 40°40' W 074°05'0 0.0
2016-Jan-31 08:32N 40°40' W 074°05'0 0.0
2016-Jan-31 07:32N 40°40' W 074°05'0 0.0
2016-Jan-31 06:32N 40°40' W 074°05'0 0.0
2016-Jan-31 05:32N 40°40' W 074°05'0 0.0
2016-Jan-31 04:32N 40°40' W 074°05'0 0.0
2016-Jan-31 03:32N 40°40' W 074°05'0 0.0
2016-Jan-31 02:32N 40°40' W 074°05'0 0.0
2016-Jan-31 01:32N 40°40' W 074°05'0 0.0
2016-Jan-31 00:32N 40°40' W 074°05'0 0.0
2016-Jan-30 23:32N 40°40' W 074°05'0 0.0
2016-Jan-30 22:32N 40°40' W 074°05'0 0.0
2016-Jan-30 21:32N 40°40' W 074°05'0 0.0
2016-Jan-30 20:32N 40°40' W 074°05'0 0.0
2016-Jan-30 19:32N 40°40' W 074°05'0 0.0
2016-Jan-30 18:32N 40°40' W 074°05'0 0.0
2016-Jan-30 17:32N 40°40' W 074°05'0 0.0
2016-Jan-30 16:32N 40°40' W 074°05'0 0.0
2016-Jan-30 15:32N 40°40' W 074°05'0 0.0
2016-Jan-30 14:32N 40°40' W 074°05'0 0.0
2016-Jan-30 13:32N 40°40' W 074°05'0 0.0
2016-Jan-30 12:32N 40°40' W 074°05'0 0.0
2016-Jan-30 11:32N 40°40' W 074°05'0 0.0
2016-Jan-30 10:32N 40°40' W 074°05'0 0.0
2016-Jan-30 09:32N 40°40' W 074°05'0 0.0
2016-Jan-30 08:32N 40°40' W 074°05'0 0.0
2016-Jan-30 07:32N 40°40' W 074°05'0 0.0
2016-Jan-30 06:32N 40°40' W 074°05'0 0.0
2016-Jan-30 05:32N 40°40' W 074°05'0 0.0
2016-Jan-30 04:32N 40°40' W 074°05'0 0.0
2016-Jan-30 03:32N 40°40' W 074°05'  

Dump ship's entire track history